createdAt,value
2019-03-24T00:00:27.288Z,70.17
2019-03-24T00:01:27.343Z,70.23
2019-03-24T00:02:27.357Z,70.34
2019-03-24T00:03:27.277Z,71.2
2019-03-24T00:04:27.287Z,71.22
2019-03-24T00:05:27.309Z,70.82
2019-03-24T00:06:27.710Z,70.29
2019-03-24T00:07:27.515Z,71.25
2019-03-24T00:08:27.329Z,71.58
2019-03-24T00:09:27.285Z,71.65
2019-03-24T00:10:27.308Z,71.3
2019-03-24T00:11:27.295Z,71.32
2019-03-24T00:12:27.255Z,71.76
2019-03-24T00:13:27.269Z,71.83
2019-03-24T00:14:27.272Z,71.37
2019-03-24T00:15:27.260Z,71.43
2019-03-24T00:16:27.260Z,71.25
2019-03-24T00:17:27.272Z,71.51
2019-03-24T00:18:27.269Z,71.84
2019-03-24T00:19:27.335Z,71.68
2019-03-24T00:20:27.256Z,71.83
2019-03-24T00:21:27.252Z,72.23
2019-03-24T00:22:27.263Z,72.08
2019-03-24T00:23:27.251Z,72.92
2019-03-24T00:24:27.250Z,72.63
2019-03-24T00:25:27.283Z,72.38
2019-03-24T00:26:27.246Z,72.95
2019-03-24T00:27:27.237Z,72.98
2019-03-24T00:28:27.359Z,72.68
2019-03-24T00:29:27.303Z,72.67
2019-03-24T00:30:27.268Z,72.71
2019-03-24T00:31:27.261Z,72.65
2019-03-24T00:32:27.298Z,73.41
2019-03-24T00:33:27.294Z,73.28
2019-03-24T00:34:27.267Z,73.43
2019-03-24T00:35:27.235Z,73.54
2019-03-24T00:36:27.230Z,73.37
2019-03-24T00:37:27.250Z,73.35
2019-03-24T00:38:27.231Z,73.78
2019-03-24T00:39:27.219Z,73.44
2019-03-24T00:40:27.217Z,73.36
2019-03-24T00:41:27.226Z,72.59
2019-03-24T00:42:27.250Z,72.4
2019-03-24T00:43:27.233Z,73.4
2019-03-24T00:44:27.210Z,72.61
2019-03-24T00:45:36.401Z,73.6
2019-03-24T00:46:27.210Z,72.99
2019-03-24T00:47:27.249Z,72.93
2019-03-24T00:48:27.227Z,72.83
2019-03-24T00:49:27.237Z,73.24
2019-03-24T00:50:27.414Z,73.45
2019-03-24T00:51:27.294Z,72.99
2019-03-24T00:52:27.230Z,73.33
2019-03-24T00:53:27.208Z,73.39
2019-03-24T00:54:27.210Z,73.76
2019-03-24T00:55:27.257Z,73.54
2019-03-24T00:56:27.235Z,74.07
2019-03-24T00:57:27.203Z,73.63
2019-03-24T00:58:27.189Z,73
2019-03-24T00:59:27.200Z,73.87
2019-03-24T01:00:27.195Z,73.62
2019-03-24T01:01:27.271Z,73.21
2019-03-24T01:02:27.185Z,73.69
2019-03-24T01:03:27.314Z,73.51
2019-03-24T01:04:27.215Z,73.69
2019-03-24T01:05:27.209Z,73.35
2019-03-24T01:06:27.229Z,73.29
2019-03-24T01:07:27.230Z,74.1
2019-03-24T01:08:27.231Z,73.79
2019-03-24T01:09:27.219Z,74.18
2019-03-24T01:10:27.230Z,73.91
2019-03-24T01:11:27.222Z,73.8
2019-03-24T01:12:27.285Z,73.13
2019-03-24T01:13:27.181Z,74.14
2019-03-24T01:14:27.181Z,73.53
2019-03-24T01:15:27.166Z,73.66
2019-03-24T01:16:27.185Z,72.89
2019-03-24T01:17:27.201Z,73.02
2019-03-24T01:18:27.183Z,73.71
2019-03-24T01:19:27.216Z,73.79
2019-03-24T01:20:27.221Z,73.44
2019-03-24T01:21:27.185Z,73.02
2019-03-24T01:22:27.194Z,73.89
2019-03-24T01:23:27.184Z,73.43
2019-03-24T01:24:27.195Z,73.58
2019-03-24T01:25:27.178Z,73.58
2019-03-24T01:26:27.199Z,73.33
2019-03-24T01:27:27.218Z,73.73
2019-03-24T01:28:27.179Z,73.38
2019-03-24T01:29:27.193Z,73.14
2019-03-24T01:30:27.202Z,73.34
2019-03-24T01:31:27.178Z,73.84
2019-03-24T01:32:27.152Z,73.57
2019-03-24T01:33:27.403Z,73.84
2019-03-24T01:34:27.230Z,73.78
2019-03-24T01:35:27.150Z,73.52
2019-03-24T01:36:27.139Z,73.68
2019-03-24T01:37:27.131Z,73.62
2019-03-24T01:38:27.145Z,73.33
2019-03-24T01:39:27.208Z,73.69
2019-03-24T01:40:27.128Z,74.29
2019-03-24T01:41:27.148Z,74.12
2019-03-24T01:42:27.140Z,74.05
2019-03-24T01:43:27.187Z,73.99
2019-03-24T01:44:27.140Z,73.86
2019-03-24T01:45:27.136Z,73.92
2019-03-24T01:46:27.128Z,74.12
2019-03-24T01:47:27.118Z,73.83
2019-03-24T01:48:27.143Z,73.94
2019-03-24T01:49:27.148Z,74
2019-03-24T01:50:27.146Z,73.76
2019-03-24T01:51:27.131Z,73.97
2019-03-24T01:52:27.121Z,73.96
2019-03-24T01:53:27.157Z,73.89
2019-03-24T01:54:27.154Z,74.13
2019-03-24T01:55:27.437Z,73.85
2019-03-24T01:56:27.352Z,74.21
2019-03-24T01:57:27.154Z,74.33
2019-03-24T01:58:27.122Z,74.47
2019-03-24T01:59:27.133Z,74.41
2019-03-24T02:00:27.117Z,74.03
2019-03-24T02:01:27.123Z,74.95
2019-03-24T02:02:27.143Z,74.94
2019-03-24T02:03:27.096Z,74.65
2019-03-24T02:04:27.108Z,74.18
2019-03-24T02:05:27.171Z,75.59
2019-03-24T02:06:27.122Z,75.93
2019-03-24T02:07:27.093Z,75.57
2019-03-24T02:08:27.165Z,75.31
2019-03-24T02:09:27.117Z,76.22
2019-03-24T02:10:27.093Z,76.25
2019-03-24T02:11:27.171Z,75.72
2019-03-24T02:12:27.139Z,75.16
2019-03-24T02:13:27.079Z,75.8
2019-03-24T02:14:27.086Z,75.38
2019-03-24T02:15:27.108Z,75.54
2019-03-24T02:16:27.088Z,75.84
2019-03-24T02:17:27.266Z,76.06
2019-03-24T02:18:27.110Z,75.68
2019-03-24T02:19:27.097Z,75.15
2019-03-24T02:20:27.193Z,75.27
2019-03-24T02:21:27.102Z,75.49
2019-03-24T02:22:27.116Z,75.24
2019-03-24T02:23:27.110Z,74.79
2019-03-24T02:24:27.115Z,74.94
2019-03-24T02:25:27.081Z,74.89
2019-03-24T02:26:27.084Z,74.52
2019-03-24T02:27:27.076Z,74.83
2019-03-24T02:28:27.057Z,75.49
2019-03-24T02:29:27.074Z,74.9
2019-03-24T02:30:27.099Z,74.55
2019-03-24T02:31:27.073Z,74.38
2019-03-24T02:32:27.058Z,75.07
2019-03-24T02:33:27.110Z,75.47
2019-03-24T02:34:27.051Z,75.38
2019-03-24T02:35:27.050Z,75.36
2019-03-24T02:36:27.076Z,74.79
2019-03-24T02:37:27.046Z,74.33
2019-03-24T02:38:27.486Z,74.47
2019-03-24T02:39:27.089Z,74.67
2019-03-24T02:40:27.046Z,74.34
2019-03-24T02:41:27.159Z,75.01
2019-03-24T02:42:27.063Z,75.23
2019-03-24T02:43:27.025Z,74.83
2019-03-24T02:44:27.074Z,75.85
2019-03-24T02:45:27.033Z,75.07
2019-03-24T02:46:27.048Z,75.29
2019-03-24T02:47:27.063Z,75.49
2019-03-24T02:48:27.065Z,75.81
2019-03-24T02:49:27.021Z,75.54
2019-03-24T02:50:27.073Z,75.96
2019-03-24T02:51:27.022Z,76.19
2019-03-24T02:52:27.041Z,75.72
2019-03-24T02:53:27.050Z,75.54
2019-03-24T02:54:27.061Z,75.53
2019-03-24T02:55:27.034Z,75.17
2019-03-24T02:56:27.011Z,75.38
2019-03-24T02:57:27.054Z,75.57
2019-03-24T02:58:27.103Z,75.29
2019-03-24T02:59:27.090Z,75.19
2019-03-24T03:00:27.481Z,75.34
2019-03-24T03:01:27.093Z,75.09
2019-03-24T03:02:27.054Z,75.14
2019-03-24T03:03:27.019Z,75.17
2019-03-24T03:04:27.025Z,75.39
2019-03-24T03:05:27.073Z,76.03
2019-03-24T03:06:27.019Z,75.5
2019-03-24T03:07:27.039Z,75.21
2019-03-24T03:08:27.007Z,75.15
2019-03-24T03:09:27.042Z,75.05
2019-03-24T03:10:27.040Z,74.7
2019-03-24T03:11:27.046Z,75.12
2019-03-24T03:12:27.008Z,74.76
2019-03-24T03:13:27.001Z,74.86
2019-03-24T03:14:27.049Z,74.92
2019-03-24T03:15:27.034Z,74.93
2019-03-24T03:16:37.756Z,74.62
2019-03-24T03:17:27.023Z,75.24
2019-03-24T03:18:26.996Z,74.76
2019-03-24T03:19:26.999Z,75.29
2019-03-24T03:20:27.915Z,74.73
2019-03-24T03:21:27.002Z,74.75
2019-03-24T03:22:27.158Z,74.8
2019-03-24T03:23:26.988Z,75.35
2019-03-24T03:24:26.981Z,75.04
2019-03-24T03:25:27.009Z,75.29
2019-03-24T03:26:26.995Z,74.98
2019-03-24T03:27:26.992Z,75.23
2019-03-24T03:28:26.997Z,74.89
2019-03-24T03:29:26.980Z,75.32
2019-03-24T03:30:27.014Z,75.25
2019-03-24T03:31:27.289Z,75.24
2019-03-24T03:32:26.986Z,75.37
2019-03-24T03:33:26.995Z,75.91
2019-03-24T03:34:27.011Z,75.68
2019-03-24T03:35:26.985Z,75.51
2019-03-24T03:36:27.003Z,75.35
2019-03-24T03:37:26.980Z,75.83
2019-03-24T03:38:26.976Z,75.65
2019-03-24T03:39:26.983Z,75.32
2019-03-24T03:40:26.999Z,75.06
2019-03-24T03:41:26.962Z,75.51
2019-03-24T03:42:26.988Z,75.33
2019-03-24T03:43:26.996Z,75.02
2019-03-24T03:44:27.105Z,75.38
2019-03-24T03:45:26.968Z,75.45
2019-03-24T03:46:27.026Z,75.14
2019-03-24T03:47:27.019Z,75.49
2019-03-24T03:48:27.024Z,75.79
2019-03-24T03:49:26.964Z,76.03
2019-03-24T03:50:26.949Z,75.46
2019-03-24T03:51:26.963Z,75.71
2019-03-24T03:52:26.983Z,75.11
2019-03-24T03:53:26.950Z,75.32
2019-03-24T03:54:26.956Z,75.46
2019-03-24T03:55:26.934Z,75.24
2019-03-24T03:56:26.967Z,75.63
2019-03-24T03:57:26.955Z,75.63
2019-03-24T03:58:26.941Z,75.67
2019-03-24T03:59:26.946Z,75.62
2019-03-24T04:00:26.932Z,76
2019-03-24T04:01:26.991Z,75.65
2019-03-24T04:02:26.955Z,75.41
2019-03-24T04:03:26.925Z,75.91
2019-03-24T04:04:27.147Z,75.91
2019-03-24T04:05:26.928Z,75.82
2019-03-24T04:06:26.946Z,75.41
2019-03-24T04:07:26.950Z,75.26
2019-03-24T04:08:26.934Z,74.98
2019-03-24T04:09:26.993Z,74.92
2019-03-24T04:10:26.919Z,74.61
2019-03-24T04:11:26.939Z,74.53
2019-03-24T04:12:26.994Z,74.18
2019-03-24T04:13:26.945Z,74.5
2019-03-24T04:14:26.922Z,74.62
2019-03-24T04:15:26.976Z,74.59
2019-03-24T04:16:26.992Z,74.49
2019-03-24T04:17:26.912Z,75.16
2019-03-24T04:18:26.937Z,75.2
2019-03-24T04:19:26.924Z,75.03
2019-03-24T04:20:26.967Z,74.8
2019-03-24T04:21:26.941Z,74.5
2019-03-24T04:22:26.925Z,75.03
2019-03-24T04:23:26.913Z,74.68
2019-03-24T04:24:26.912Z,74.5
2019-03-24T04:25:27.210Z,74.63
2019-03-24T04:26:27.189Z,75.02
2019-03-24T04:27:26.915Z,75.03
2019-03-24T04:28:26.935Z,74.91
2019-03-24T04:29:26.945Z,74.93
2019-03-24T04:30:26.929Z,74.89
2019-03-24T04:31:26.926Z,74.74
2019-03-24T04:32:26.914Z,74.72
2019-03-24T04:33:26.920Z,74.44
2019-03-24T04:34:26.936Z,74.33
2019-03-24T04:35:26.971Z,74.21
2019-03-24T04:36:26.912Z,74.08
2019-03-24T04:37:26.904Z,74.08
2019-03-24T04:38:26.980Z,74.43
2019-03-24T04:39:26.914Z,74.64
2019-03-24T04:40:26.906Z,75.86
2019-03-24T04:41:26.899Z,75.8
2019-03-24T04:42:26.911Z,75.08
2019-03-24T04:43:26.898Z,75.89
2019-03-24T04:44:26.882Z,75.92
2019-03-24T04:45:26.880Z,75.21
2019-03-24T04:46:26.919Z,75.16
2019-03-24T04:47:26.925Z,75.04
2019-03-24T04:48:26.887Z,74.77
2019-03-24T04:49:26.893Z,75.17
2019-03-24T04:50:26.953Z,76.13
2019-03-24T04:51:26.858Z,76.03
2019-03-24T04:52:26.890Z,75.87
2019-03-24T04:53:26.914Z,76.11
2019-03-24T04:54:26.907Z,75.86
2019-03-24T04:55:26.909Z,75.67
2019-03-24T04:56:26.866Z,75.96
2019-03-24T04:57:26.894Z,76.07
2019-03-24T04:58:26.854Z,75.76
2019-03-24T04:59:26.856Z,75.4
2019-03-24T05:00:26.891Z,75.4
2019-03-24T05:01:26.856Z,75.2
2019-03-24T05:02:26.865Z,74.89
2019-03-24T05:03:26.842Z,74.82
2019-03-24T05:04:26.839Z,74.88
2019-03-24T05:05:26.859Z,75.17
2019-03-24T05:06:27.152Z,75.09
2019-03-24T05:07:26.863Z,75.07
2019-03-24T05:08:27.181Z,75.63
2019-03-24T05:09:26.874Z,76.23
2019-03-24T05:10:26.880Z,75.85
2019-03-24T05:11:26.872Z,75.56
2019-03-24T05:12:26.878Z,75.81
2019-03-24T05:13:26.817Z,76.12
2019-03-24T05:14:26.870Z,76.18
2019-03-24T05:15:26.846Z,76.69
2019-03-24T05:16:26.834Z,76.83
2019-03-24T05:17:27.451Z,76.74
2019-03-24T05:18:26.843Z,76.54
2019-03-24T05:19:26.848Z,76.45
2019-03-24T05:20:26.844Z,76.27
2019-03-24T05:21:26.862Z,76.5
2019-03-24T05:22:26.891Z,76.36
2019-03-24T05:23:26.872Z,76.59
2019-03-24T05:24:26.862Z,76.06
2019-03-24T05:25:26.957Z,76.16
2019-03-24T05:26:26.876Z,76.41
2019-03-24T05:27:26.830Z,76.2
2019-03-24T05:28:26.820Z,75.86
2019-03-24T05:29:26.843Z,75.72
2019-03-24T05:30:26.868Z,75.57
2019-03-24T05:31:26.827Z,75.7
2019-03-24T05:32:26.810Z,75.65
2019-03-24T05:33:26.802Z,75.65
2019-03-24T05:34:27.336Z,75.32
2019-03-24T05:35:26.873Z,75.12
2019-03-24T05:36:26.834Z,75.15
2019-03-24T05:37:26.858Z,75.23
2019-03-24T05:38:26.812Z,75.47
2019-03-24T05:39:26.809Z,75.67
2019-03-24T05:40:26.831Z,75.53
2019-03-24T05:41:26.842Z,76.05
2019-03-24T05:42:26.818Z,76.21
2019-03-24T05:43:26.815Z,76.39
2019-03-24T05:44:26.806Z,76.22
2019-03-24T05:45:26.793Z,76.12
2019-03-24T05:46:26.824Z,75.89
2019-03-24T05:47:36.556Z,75.51
2019-03-24T05:48:26.819Z,75.46
2019-03-24T05:49:26.783Z,76.49
2019-03-24T05:50:26.797Z,76.66
2019-03-24T05:51:26.893Z,76.63
2019-03-24T05:52:27.789Z,76.72
2019-03-24T05:53:26.807Z,76.58
2019-03-24T05:54:26.790Z,76.81
2019-03-24T05:55:26.809Z,76.73
2019-03-24T05:56:26.787Z,77.06
2019-03-24T05:57:26.780Z,77.09
2019-03-24T05:58:26.801Z,76.99
2019-03-24T05:59:26.760Z,77.1
2019-03-24T06:00:26.786Z,76.8
2019-03-24T06:01:26.771Z,76.59
2019-03-24T06:02:26.823Z,76.5
2019-03-24T06:03:26.853Z,76.85
2019-03-24T06:04:26.817Z,76.84
2019-03-24T06:05:26.785Z,77.04
2019-03-24T06:06:26.771Z,77.43
2019-03-24T06:07:26.742Z,77.26
2019-03-24T06:08:26.748Z,77.78
2019-03-24T06:09:26.795Z,77.33
2019-03-24T06:10:26.767Z,77.19
2019-03-24T06:11:26.756Z,77.21
2019-03-24T06:12:26.741Z,77.27
2019-03-24T06:13:26.989Z,77.3
2019-03-24T06:14:27.512Z,77.2
2019-03-24T06:15:26.765Z,77.06
2019-03-24T06:16:26.807Z,76.97
2019-03-24T06:17:26.777Z,76.97
2019-03-24T06:18:26.727Z,76.91
2019-03-24T06:19:26.755Z,76.25
2019-03-24T06:20:26.756Z,75.95
2019-03-24T06:21:26.762Z,76.09
2019-03-24T06:22:26.728Z,76.02
2019-03-24T06:23:26.728Z,76.58
2019-03-24T06:24:26.728Z,76.2
2019-03-24T06:25:26.778Z,77.01
2019-03-24T06:26:26.732Z,77.15
2019-03-24T06:27:26.761Z,77.27
2019-03-24T06:28:26.734Z,76.92
2019-03-24T06:29:26.713Z,77.61
2019-03-24T06:30:26.719Z,77.64
2019-03-24T06:31:26.750Z,76.88
2019-03-24T06:32:26.714Z,76.76
2019-03-24T06:33:26.772Z,76.97
2019-03-24T06:34:26.740Z,77.79
2019-03-24T06:35:27.016Z,76.64
2019-03-24T06:36:26.772Z,76.61
2019-03-24T06:37:26.718Z,76.63
2019-03-24T06:38:26.721Z,76.6
2019-03-24T06:39:26.706Z,76.96
2019-03-24T06:40:26.740Z,77.42
2019-03-24T06:41:26.718Z,77.84
2019-03-24T06:42:26.698Z,78.9
2019-03-24T06:43:26.700Z,78.29
2019-03-24T06:44:26.733Z,78.18
2019-03-24T06:45:28.569Z,77.84
2019-03-24T06:46:26.742Z,78.58
2019-03-24T06:47:26.690Z,78.89
2019-03-24T06:48:26.733Z,78.4
2019-03-24T06:49:26.681Z,79.47
2019-03-24T06:50:26.710Z,80.73
2019-03-24T06:51:26.669Z,80.6
2019-03-24T06:52:26.720Z,79.73
2019-03-24T06:53:26.679Z,79.52
2019-03-24T06:54:26.674Z,79.66
2019-03-24T06:55:26.677Z,79.37
2019-03-24T06:56:26.756Z,81.37
2019-03-24T06:57:26.760Z,80.31
2019-03-24T06:58:26.676Z,80.09
2019-03-24T06:59:26.709Z,80.67
2019-03-24T07:00:26.714Z,81.49
2019-03-24T07:01:26.682Z,80.82
2019-03-24T07:02:26.658Z,81.33
2019-03-24T07:03:26.677Z,81.41
2019-03-24T07:04:26.667Z,80.86
2019-03-24T07:05:26.732Z,80.31
2019-03-24T07:06:26.685Z,81.38
2019-03-24T07:07:26.662Z,81.14
2019-03-24T07:08:26.672Z,81.53
2019-03-24T07:09:26.726Z,80.55
2019-03-24T07:10:26.660Z,80.39
2019-03-24T07:11:26.674Z,81.05
2019-03-24T07:12:26.674Z,80.58
2019-03-24T07:13:26.660Z,80.62
2019-03-24T07:14:26.643Z,80.49
2019-03-24T07:15:26.667Z,80.99
2019-03-24T07:16:26.655Z,80.1
2019-03-24T07:17:26.654Z,81.58
2019-03-24T07:18:26.693Z,82.21
2019-03-24T07:19:26.663Z,83.21
2019-03-24T07:20:26.660Z,83.67
2019-03-24T07:21:26.732Z,83.57
2019-03-24T07:22:26.639Z,84.08
2019-03-24T07:23:26.640Z,84.7
2019-03-24T07:24:26.646Z,86.25
2019-03-24T07:25:26.678Z,86.9
2019-03-24T07:26:26.672Z,86.31
2019-03-24T07:27:26.719Z,85.05
2019-03-24T07:28:26.657Z,86.18
2019-03-24T07:29:26.639Z,86.53
2019-03-24T07:30:26.641Z,87.11
2019-03-24T07:31:26.695Z,87.36
2019-03-24T07:32:26.638Z,87.66
2019-03-24T07:33:26.632Z,87.96
2019-03-24T07:34:26.633Z,88.02
2019-03-24T07:35:26.620Z,88
2019-03-24T07:36:26.714Z,87.81
2019-03-24T07:37:26.614Z,87.68
2019-03-24T07:38:26.684Z,87.76
2019-03-24T07:39:26.623Z,88.17
2019-03-24T07:40:28.470Z,87.49
2019-03-24T07:41:26.685Z,87.34
2019-03-24T07:42:26.623Z,87.14
2019-03-24T07:43:26.615Z,87.13
2019-03-24T07:44:26.637Z,86.35
2019-03-24T07:45:26.611Z,85.84
2019-03-24T07:46:26.612Z,86.41
2019-03-24T07:47:26.627Z,86.61
2019-03-24T07:48:26.695Z,87.07
2019-03-24T07:49:26.621Z,86.94
2019-03-24T07:50:26.629Z,86.69
2019-03-24T07:51:26.603Z,85.86
2019-03-24T07:52:26.605Z,85.17
2019-03-24T07:53:26.619Z,86.24
2019-03-24T07:54:26.643Z,86.1
2019-03-24T07:55:26.608Z,84.24
2019-03-24T07:56:26.601Z,85.17
2019-03-24T07:57:26.603Z,84.66
2019-03-24T07:58:26.583Z,84.89
2019-03-24T07:59:26.587Z,84.85
2019-03-24T08:00:26.634Z,84.6
2019-03-24T08:01:26.613Z,85.37
2019-03-24T08:02:26.632Z,84.76
2019-03-24T08:03:26.628Z,84.52
2019-03-24T08:04:26.603Z,84.18
2019-03-24T08:05:26.611Z,83.65
2019-03-24T08:06:26.615Z,84.51
2019-03-24T08:07:26.616Z,84.99
2019-03-24T08:08:26.655Z,85.09
2019-03-24T08:09:26.562Z,85.05
2019-03-24T08:10:26.661Z,84.37
2019-03-24T08:11:26.570Z,84.21
2019-03-24T08:12:26.556Z,83.89
2019-03-24T08:13:26.597Z,84.41
2019-03-24T08:14:26.596Z,84.27
2019-03-24T08:15:26.653Z,84.38
2019-03-24T08:16:26.600Z,84.19
2019-03-24T08:17:26.573Z,84.32
2019-03-24T08:18:30.051Z,83.32
2019-03-24T08:19:26.583Z,83.35
2019-03-24T08:20:26.589Z,82.89
2019-03-24T08:21:26.621Z,82.49
2019-03-24T08:22:26.556Z,82.95
2019-03-24T08:23:26.714Z,82.5
2019-03-24T08:24:26.580Z,82.68
2019-03-24T08:25:26.547Z,82.03
2019-03-24T08:26:26.564Z,82.36
2019-03-24T08:27:26.546Z,82.44
2019-03-24T08:28:26.814Z,82.47
2019-03-24T08:29:26.554Z,82.3
2019-03-24T08:30:28.790Z,82.5
2019-03-24T08:31:26.544Z,82.4
2019-03-24T08:32:26.554Z,82.19
2019-03-24T08:33:26.648Z,82.17
2019-03-24T08:34:26.578Z,81.88
2019-03-24T08:35:26.600Z,82.24
2019-03-24T08:36:26.542Z,82.14
2019-03-24T08:37:26.570Z,82.53
2019-03-24T08:38:29.401Z,82.44
2019-03-24T08:39:26.560Z,81.85
2019-03-24T08:40:26.634Z,82.1
2019-03-24T08:41:26.532Z,81.64
2019-03-24T08:42:26.540Z,81.9
2019-03-24T08:43:26.548Z,81.58
2019-03-24T08:44:26.546Z,81.47
2019-03-24T08:45:26.626Z,81.32
2019-03-24T08:46:26.522Z,81.14
2019-03-24T08:47:26.600Z,80.65
2019-03-24T08:48:26.506Z,80.69
2019-03-24T08:49:26.516Z,80.53
2019-03-24T08:50:26.519Z,79.96
2019-03-24T08:51:26.517Z,79.38
2019-03-24T08:52:26.565Z,78.79
2019-03-24T08:53:26.571Z,79.11
2019-03-24T08:54:26.563Z,79.45
2019-03-24T08:55:26.555Z,79.14
2019-03-24T08:56:26.539Z,79.51
2019-03-24T08:57:26.546Z,79.15
2019-03-24T08:58:26.538Z,79.17
2019-03-24T08:59:27.500Z,78.78
2019-03-24T09:00:30.752Z,78.72
2019-03-24T09:01:26.491Z,78.29
2019-03-24T09:02:26.508Z,78.52
2019-03-24T09:03:26.526Z,77.77
2019-03-24T09:04:26.519Z,77.94
2019-03-24T09:05:26.504Z,77.93
2019-03-24T09:06:26.492Z,77.6
2019-03-24T09:07:26.664Z,77.56
2019-03-24T09:08:26.500Z,77.44
2019-03-24T09:09:26.497Z,76.88
2019-03-24T09:10:26.533Z,76.85
2019-03-24T09:11:31.051Z,76.79
2019-03-24T09:12:31.209Z,76.59
2019-03-24T09:13:26.491Z,76.71
2019-03-24T09:14:26.492Z,76.41
2019-03-24T09:15:26.545Z,75.38
2019-03-24T09:16:26.535Z,75.04
2019-03-24T09:17:26.547Z,75.56
2019-03-24T09:18:26.534Z,75.44
2019-03-24T09:19:26.482Z,75.43
2019-03-24T09:20:26.489Z,75.49
2019-03-24T09:21:26.536Z,75.34
2019-03-24T09:22:26.500Z,75.51
2019-03-24T09:23:26.503Z,74.6
2019-03-24T09:24:26.486Z,74.8
2019-03-24T09:25:26.563Z,75.2
2019-03-24T09:26:26.467Z,74.7
2019-03-24T09:27:26.566Z,74.65
2019-03-24T09:28:26.521Z,74.62
2019-03-24T09:29:26.743Z,74.08
2019-03-24T09:30:26.540Z,73.64
2019-03-24T09:31:26.486Z,73.71
2019-03-24T09:32:26.533Z,74.16
2019-03-24T09:33:26.470Z,74.35
2019-03-24T09:34:26.495Z,73.91
2019-03-24T09:35:26.467Z,73.14
2019-03-24T09:36:26.625Z,72.85
2019-03-24T09:37:26.518Z,72.54
2019-03-24T09:38:26.508Z,72.36
2019-03-24T09:39:26.496Z,72.82
2019-03-24T09:40:26.454Z,73.17
2019-03-24T09:41:26.525Z,72.97
2019-03-24T09:42:26.481Z,72.79
2019-03-24T09:43:26.462Z,72.56
2019-03-24T09:44:26.495Z,72.69
2019-03-24T09:45:26.508Z,72.37
2019-03-24T09:46:26.517Z,71.32
2019-03-24T09:47:26.457Z,72.17
2019-03-24T09:48:26.516Z,72.4
2019-03-24T09:49:26.450Z,72.93
2019-03-24T09:50:26.641Z,73.1
2019-03-24T09:51:26.540Z,71.95
2019-03-24T09:52:26.445Z,72
2019-03-24T09:53:26.444Z,72.42
2019-03-24T09:54:26.452Z,72.42
2019-03-24T09:55:26.414Z,71.87
2019-03-24T09:56:27.457Z,72.02
2019-03-24T09:57:26.428Z,71.44
2019-03-24T09:58:26.421Z,71.21
2019-03-24T09:59:26.458Z,70.48
2019-03-24T10:00:26.444Z,70.42
2019-03-24T10:01:26.550Z,70.96
2019-03-24T10:02:26.458Z,70.75
2019-03-24T10:03:26.418Z,70.4
2019-03-24T10:04:27.376Z,71.18
2019-03-24T10:05:26.415Z,71.2
2019-03-24T10:06:26.417Z,70.97
2019-03-24T10:07:26.481Z,70.37
2019-03-24T10:08:26.424Z,70.04
2019-03-24T10:09:26.434Z,69.82
2019-03-24T10:10:26.519Z,70.43
2019-03-24T10:11:26.513Z,69.95
2019-03-24T10:12:26.446Z,69.47
2019-03-24T10:13:26.480Z,69.58
2019-03-24T10:14:26.439Z,69.23
2019-03-24T10:15:26.392Z,68.84
2019-03-24T10:16:26.467Z,68.84
2019-03-24T10:17:26.515Z,69.23
2019-03-24T10:18:27.589Z,69.01
2019-03-24T10:19:26.521Z,68.85
2019-03-24T10:20:26.442Z,68.78
2019-03-24T10:21:26.382Z,68.15
2019-03-24T10:22:26.375Z,68.54
2019-03-24T10:23:26.418Z,67.72
2019-03-24T10:24:26.366Z,67.91
2019-03-24T10:25:26.458Z,68.15
2019-03-24T10:26:27.000Z,67.68
2019-03-24T10:27:26.400Z,67.1
2019-03-24T10:28:26.371Z,67.42
2019-03-24T10:29:26.415Z,66.92
2019-03-24T10:30:26.444Z,66.81
2019-03-24T10:31:26.388Z,67.63
2019-03-24T10:32:26.404Z,67.16
2019-03-24T10:33:26.382Z,66.79
2019-03-24T10:34:26.439Z,66.49
2019-03-24T10:35:26.471Z,66.24
2019-03-24T10:36:27.507Z,66.51
2019-03-24T10:37:26.367Z,67.23
2019-03-24T10:38:26.391Z,66.9
2019-03-24T10:39:26.394Z,65.4
2019-03-24T10:40:28.770Z,64.99
2019-03-24T10:41:26.441Z,65.01
2019-03-24T10:42:26.452Z,65.25
2019-03-24T10:43:26.360Z,65.6
2019-03-24T10:44:26.453Z,65.64
2019-03-24T10:45:26.365Z,65.21
2019-03-24T10:46:26.364Z,65.22
2019-03-24T10:47:26.361Z,65.04
2019-03-24T10:48:33.498Z,65.08
2019-03-24T10:49:26.365Z,65.16
2019-03-24T10:50:26.407Z,65.11
2019-03-24T10:51:26.399Z,65
2019-03-24T10:52:26.365Z,65.42
2019-03-24T10:53:26.421Z,65.32
2019-03-24T10:54:26.602Z,65.11
2019-03-24T10:55:26.360Z,64.76
2019-03-24T10:56:26.380Z,63.33
2019-03-24T10:57:26.342Z,63.53
2019-03-24T10:58:26.555Z,63.2
2019-03-24T10:59:26.327Z,62.92
2019-03-24T11:00:26.389Z,63.07
2019-03-24T11:01:26.371Z,63.46
2019-03-24T11:02:26.367Z,63.56
2019-03-24T11:03:26.348Z,63.7
2019-03-24T11:04:26.455Z,63.7
2019-03-24T11:05:26.338Z,63.33
2019-03-24T11:06:26.425Z,63.44
2019-03-24T11:07:26.334Z,63.59
2019-03-24T11:08:26.394Z,63.46
2019-03-24T11:09:26.379Z,63.25
2019-03-24T11:10:26.501Z,63.32
2019-03-24T11:11:26.417Z,63.32
2019-03-24T11:12:26.429Z,63.38
2019-03-24T11:13:26.468Z,63.38
2019-03-24T11:14:26.319Z,63.35
2019-03-24T11:15:27.351Z,61.84
2019-03-24T11:16:26.324Z,61.17
2019-03-24T11:17:26.314Z,60.69
2019-03-24T11:18:26.318Z,60.94
2019-03-24T11:19:35.209Z,60.65
2019-03-24T11:20:26.303Z,60.48
2019-03-24T11:21:26.672Z,60.11
2019-03-24T11:22:26.317Z,60.27
2019-03-24T11:23:26.351Z,59.91
2019-03-24T11:24:26.301Z,59.81
2019-03-24T11:25:26.306Z,59.38
2019-03-24T11:26:26.364Z,59.75
2019-03-24T11:27:26.303Z,59.07
2019-03-24T11:28:26.313Z,59.05
2019-03-24T11:29:26.301Z,59.03
2019-03-24T11:30:26.393Z,58.79
2019-03-24T11:31:26.334Z,59.4
2019-03-24T11:32:26.271Z,59.55
2019-03-24T11:33:26.302Z,59.42
2019-03-24T11:34:26.356Z,59.64
2019-03-24T11:35:27.181Z,60.34
2019-03-24T11:36:26.321Z,59.94
2019-03-24T11:37:26.993Z,59.62
2019-03-24T11:38:26.334Z,59.72
2019-03-24T11:39:27.553Z,59.26
2019-03-24T11:40:26.400Z,59.31
2019-03-24T11:41:26.411Z,59.41
2019-03-24T11:42:26.308Z,59.76
2019-03-24T11:43:26.359Z,59.45
2019-03-24T11:44:26.322Z,59.26
2019-03-24T11:45:26.307Z,59.64
2019-03-24T11:46:26.294Z,59.45
2019-03-24T11:47:27.069Z,59.57
2019-03-24T11:48:26.300Z,58.8
2019-03-24T11:49:26.315Z,58.96
2019-03-24T11:50:26.342Z,59.09
2019-03-24T11:51:26.286Z,59.09
2019-03-24T11:52:26.317Z,59.54
2019-03-24T11:53:26.292Z,59.68
2019-03-24T11:54:26.289Z,59.3
2019-03-24T11:55:26.321Z,59.18
2019-03-24T11:56:26.262Z,59.13
2019-03-24T11:57:26.416Z,59.18
2019-03-24T11:58:26.454Z,58.95
2019-03-24T11:59:26.278Z,59
2019-03-24T12:00:27.358Z,59.33
2019-03-24T12:01:26.264Z,59.3
2019-03-24T12:02:26.330Z,58.91
2019-03-24T12:03:26.273Z,59.24
2019-03-24T12:04:26.292Z,58.8
2019-03-24T12:05:26.279Z,58.62
2019-03-24T12:06:26.270Z,58.45
2019-03-24T12:07:26.251Z,58.79
2019-03-24T12:08:26.247Z,58.39
2019-03-24T12:09:26.277Z,58.26
2019-03-24T12:10:26.245Z,58.58
2019-03-24T12:11:26.251Z,58.2
2019-03-24T12:12:26.285Z,58.16
2019-03-24T12:13:26.303Z,57.92
2019-03-24T12:14:26.262Z,57.89
2019-03-24T12:15:26.271Z,58.44
2019-03-24T12:16:26.273Z,58.33
2019-03-24T12:17:26.274Z,57.98
2019-03-24T12:18:27.359Z,57.87
2019-03-24T12:19:26.587Z,57.66
2019-03-24T12:20:26.666Z,57.37
2019-03-24T12:21:26.238Z,57.45
2019-03-24T12:22:26.243Z,57.32
2019-03-24T12:23:26.239Z,57.64
2019-03-24T12:24:26.324Z,58
2019-03-24T12:25:28.528Z,57.5
2019-03-24T12:26:26.291Z,57.59
2019-03-24T12:27:26.264Z,57.91
2019-03-24T12:28:26.258Z,57.92
2019-03-24T12:29:26.256Z,57.48
2019-03-24T12:30:26.249Z,57.43
2019-03-24T12:31:26.284Z,57.72
2019-03-24T12:32:26.285Z,57.57
2019-03-24T12:33:26.252Z,57.47
2019-03-24T12:34:26.268Z,57.4
2019-03-24T12:35:26.296Z,57.68
2019-03-24T12:36:26.274Z,57.09
2019-03-24T12:37:26.269Z,57.35
2019-03-24T12:38:26.206Z,57.32
2019-03-24T12:39:26.251Z,57.18
2019-03-24T12:40:27.161Z,57.12
2019-03-24T12:41:26.290Z,57.16
2019-03-24T12:42:26.373Z,56.96
2019-03-24T12:43:26.228Z,56.96
2019-03-24T12:44:26.337Z,56.87
2019-03-24T12:45:26.272Z,56.83
2019-03-24T12:46:27.375Z,56.7
2019-03-24T12:47:27.199Z,56.83
2019-03-24T12:48:26.278Z,56.91
2019-03-24T12:49:27.421Z,56.99
2019-03-24T12:50:31.225Z,56.88
2019-03-24T12:51:27.605Z,56.65
2019-03-24T12:52:26.268Z,57.03
2019-03-24T12:53:26.181Z,56.82
2019-03-24T12:54:26.195Z,56.63
2019-03-24T12:55:26.198Z,56.7